KBKW Airport (Raleigh County Memorial) Information

FAA: BKW - ICAO: KBKW

KBKW Airport Location

State West Virginia
County Raleigh
City Beckley
KBKW Airport is 3 miles east of Beckley, WV.
Latitude 37-47-14.4000N
Longitude 081-07-27.0000W
Elevation 2,503ft

KBKW Airport METARs

METAR KBKW 060651Z AUTO 19006KT 10SM CLR 19/17 A3008 RMK AO2 SLP159 T01890172
Altimeter 30.08"
Temperature 18.9°C (66.0°F)
Wind 190° at 6KT
Clouds Skies are clear.
Visibility 10.0mi
Time observed: 2022-07-06T06:51:00Z

KBKW Airport Details

Status Operational
Activation September 1952
Ownership Public
Usage Public
Chart CINCINNATI
ATC on-site No
Beacon schedule sunset-sunrise
Beacon color clear green

KBKW Airport Contacts

Owner RALEIGH COUNTY ARPT AUTH
Owner address 176 AIRPORT CIRCLE RM 105, BEAVER, WV 25813
Owner phone 304-255-0476
Manager GERALD GOLLEHON
Manager address 38436 GOLLEHON RD N., WILBUR, WA 99185
Manager phone 509-647-2859

KBKW Airport (Raleigh County Memorial) Radio Frequencies

KBKW (Airport) Radio Frequencies

UNICOM 123
Common traffic advisory frequency (CTAF) 123